Littlefield, Texas
Current Conditions -  °F | °C
As of 9:15 PM on Thursday 18 Dec 2014 (Local Time) from KLBB Reporting Station
Broken Clouds Broken Clouds  
Wind Chill: 32°   Ceiling: 700
Heat Index: 39°   Visibility: 8mi
Dew Point: 35°   Wind: 10mph
Humidity: 86%   Direction: 90°E
Pressure: 30.12"   Gusts: NA
Location:  33.92°N, 102.33°W
Report Text: KLBB 190315Z 09009KT 8SM BKN007 04/02 A3012 RMK AO2 T00390017
Loading
Personal Weather Stations






























Interactive Weather Map New forecast layout! Learn more

10-Day Weather Forecast

Advertisements
Track Severe Weather on mobile